createdAt,value
2019-05-26T00:02:11.499Z,98550.73
2019-05-26T00:04:46.199Z,98553.98
2019-05-26T00:07:30.274Z,98556.79
2019-05-26T00:09:54.014Z,98552.23
2019-05-26T00:12:26.416Z,98549.38
2019-05-26T00:14:58.480Z,98550.92
2019-05-26T00:17:30.560Z,98559.98
2019-05-26T00:20:05.066Z,98556.73
2019-05-26T00:22:39.389Z,98555.23
2019-05-26T00:25:12.804Z,98548.58
2019-05-26T00:27:44.234Z,98549.68
2019-05-26T00:30:17.255Z,98554.28
2019-05-26T00:32:48.878Z,98551.66
2019-05-26T00:35:20.943Z,98560.50
2019-05-26T00:37:53.215Z,98559.52
2019-05-26T00:40:25.687Z,98560.73
2019-05-26T00:42:57.549Z,98562.71
2019-05-26T00:45:32.070Z,98564.53
2019-05-26T00:48:04.938Z,98563.67
2019-05-26T00:50:37.745Z,98564.15
2019-05-26T00:53:11.846Z,98565.46
2019-05-26T00:55:45.032Z,98561.98
2019-05-26T00:58:17.718Z,98561.94
2019-05-26T01:00:49.782Z,98559.72
2019-05-26T01:03:21.759Z,98558.61
2019-05-26T01:05:54.525Z,98561.73
2019-05-26T01:08:26.287Z,98560.77
2019-05-26T01:11:01.302Z,98561.25
2019-05-26T01:13:31.846Z,98561.84
2019-05-26T01:16:03.614Z,98567.03
2019-05-26T01:18:35.359Z,98560.22
2019-05-26T01:21:07.119Z,98558.91
2019-05-26T01:23:41.446Z,98557.29
2019-05-26T01:26:13.399Z,98561.37
2019-05-26T01:28:45.474Z,98565.92
2019-05-26T01:31:18.449Z,98564.41
2019-05-26T01:33:51.025Z,98569.31
2019-05-26T01:36:24.017Z,98570.22
2019-05-26T01:38:55.977Z,98572.66
2019-05-26T01:41:28.363Z,98578.98
2019-05-26T01:43:59.756Z,98577.33
2019-05-26T01:46:31.976Z,98575.83
2019-05-26T01:49:06.288Z,98576.22
2019-05-26T01:51:37.947Z,98575.45
2019-05-26T01:54:10.522Z,98578.04
2019-05-26T01:56:43.508Z,98576.27
2019-05-26T01:59:15.371Z,98584.59
2019-05-26T02:01:49.180Z,98587.23
2019-05-26T02:04:21.693Z,98589.88
2019-05-26T02:06:55.246Z,98590.00
2019-05-26T02:09:27.210Z,98593.45
2019-05-26T02:12:01.518Z,98598.13
2019-05-26T02:14:33.591Z,98592.14
2019-05-26T02:17:05.659Z,98600.58
2019-05-26T02:19:37.622Z,98593.24
2019-05-26T02:22:09.681Z,98599.15
2019-05-26T02:24:41.949Z,98608.17
2019-05-26T02:27:14.821Z,98609.80
2019-05-26T02:29:47.823Z,98603.82
2019-05-26T02:32:20.099Z,98608.73
2019-05-26T02:34:53.899Z,98611.66
2019-05-26T02:37:25.870Z,98615.42
2019-05-26T02:39:57.850Z,98612.25
2019-05-26T02:42:29.587Z,98616.25
2019-05-26T02:45:01.709Z,98616.95
2019-05-26T02:47:34.021Z,98625.92
2019-05-26T02:50:08.901Z,98625.75
2019-05-26T02:52:41.020Z,98628.97
2019-05-26T02:55:15.742Z,98627.24
2019-05-26T02:57:48.626Z,98631.89
2019-05-26T03:00:38.716Z,98629.86
2019-05-26T03:03:13.263Z,98628.45
2019-05-26T03:05:46.085Z,98627.69
2019-05-26T03:08:18.605Z,98627.45
2019-05-26T03:10:52.451Z,98625.95
2019-05-26T03:13:24.284Z,98622.31
2019-05-26T03:15:58.683Z,98628.09
2019-05-26T03:18:33.219Z,98629.53
2019-05-26T03:21:05.998Z,98631.02
2019-05-26T03:23:41.328Z,98629.61
2019-05-26T03:26:16.262Z,98634.11
2019-05-26T03:28:49.771Z,98632.97
2019-05-26T03:31:22.867Z,98636.99
2019-05-26T03:33:56.353Z,98632.70
2019-05-26T03:36:30.874Z,98634.79
2019-05-26T03:39:02.631Z,98647.33
2019-05-26T03:41:36.542Z,98649.23
2019-05-26T03:44:09.126Z,98645.09
2019-05-26T03:46:42.723Z,98654.53
2019-05-26T03:49:14.364Z,98658.94
2019-05-26T03:51:48.410Z,98663.67
2019-05-26T03:54:20.647Z,98662.69
2019-05-26T03:56:53.428Z,98663.43
2019-05-26T03:59:25.291Z,98663.07
2019-05-26T04:01:58.224Z,98669.80
2019-05-26T04:04:30.039Z,98669.89
2019-05-26T04:07:01.744Z,98670.05
2019-05-26T04:09:35.397Z,98677.42
2019-05-26T04:12:07.876Z,98684.58
2019-05-26T04:14:41.481Z,98678.30
2019-05-26T04:17:18.243Z,98687.72
2019-05-26T04:19:50.623Z,98687.86
2019-05-26T04:22:22.836Z,98692.41
2019-05-26T04:24:55.262Z,98697.93
2019-05-26T04:27:27.832Z,98699.61
2019-05-26T04:30:00.650Z,98700.96
2019-05-26T04:32:33.715Z,98689.85
2019-05-26T04:35:07.917Z,98696.85
2019-05-26T04:37:39.499Z,98694.95
2019-05-26T04:40:25.624Z,98694.61
2019-05-26T04:42:45.342Z,98696.98
2019-05-26T04:45:21.919Z,98697.03
2019-05-26T04:47:54.077Z,98697.42
2019-05-26T04:50:27.070Z,98696.45
2019-05-26T04:53:06.545Z,98697.17
2019-05-26T04:55:34.471Z,98705.65
2019-05-26T04:58:07.476Z,98703.32
2019-05-26T05:00:40.957Z,98708.73
2019-05-26T05:03:14.217Z,98706.80
2019-05-26T05:05:46.111Z,98713.70
2019-05-26T05:08:17.974Z,98702.67
2019-05-26T05:10:49.729Z,98701.08
2019-05-26T05:13:24.891Z,98709.93
2019-05-26T05:15:55.498Z,98706.42
2019-05-26T05:18:30.846Z,98707.52
2019-05-26T05:21:02.497Z,98703.14
2019-05-26T05:23:34.463Z,98706.39
2019-05-26T05:26:07.049Z,98704.34
2019-05-26T05:28:39.205Z,98712.64
2019-05-26T05:31:11.676Z,98716.33
2019-05-26T05:33:46.609Z,98709.94
2019-05-26T05:36:18.068Z,98718.35
2019-05-26T05:38:51.663Z,98713.01
2019-05-26T05:41:25.270Z,98706.23
2019-05-26T05:43:57.767Z,98713.48
2019-05-26T05:46:31.339Z,98717.41
2019-05-26T05:49:03.159Z,98710.67
2019-05-26T05:51:37.455Z,98720.95
2019-05-26T05:54:08.921Z,98718.92
2019-05-26T05:56:40.827Z,98719.33
2019-05-26T05:59:12.423Z,98724.88
2019-05-26T06:01:45.470Z,98725.16
2019-05-26T06:04:17.198Z,98724.56
2019-05-26T06:06:49.176Z,98721.64
2019-05-26T06:09:24.645Z,98719.44
2019-05-26T06:11:57.220Z,98721.86
2019-05-26T06:14:29.139Z,98722.42
2019-05-26T06:17:03.196Z,98723.51
2019-05-26T06:19:34.522Z,98734.81
2019-05-26T06:22:06.484Z,98734.34
2019-05-26T06:24:37.953Z,98738.93
2019-05-26T06:27:10.606Z,98744.27
2019-05-26T06:29:57.973Z,98739.80
2019-05-26T06:32:16.335Z,98734.09
2019-05-26T06:34:48.437Z,98734.09
2019-05-26T06:37:19.990Z,98744.37
2019-05-26T06:39:51.755Z,98742.03
2019-05-26T06:42:24.478Z,98742.82
2019-05-26T06:44:55.891Z,98748.97
2019-05-26T06:47:27.315Z,98758.09
2019-05-26T06:49:59.376Z,98758.09
2019-05-26T06:52:32.434Z,98759.19
2019-05-26T06:55:04.477Z,98758.25
2019-05-26T06:57:38.134Z,98762.15
2019-05-26T07:00:10.556Z,98766.39
2019-05-26T07:02:42.266Z,98755.34
2019-05-26T07:05:18.060Z,98759.65
2019-05-26T07:07:47.911Z,98769.72
2019-05-26T07:10:19.364Z,98768.85
2019-05-26T07:12:52.305Z,98765.57
2019-05-26T07:15:23.821Z,98766.16
2019-05-26T07:17:55.566Z,98767.00
2019-05-26T07:20:28.095Z,98761.81
2019-05-26T07:22:59.887Z,98765.70
2019-05-26T07:25:31.886Z,98764.78
2019-05-26T07:28:03.253Z,98771.62
2019-05-26T07:30:35.102Z,98774.84
2019-05-26T07:33:06.420Z,98775.87
2019-05-26T07:35:38.775Z,98781.42
2019-05-26T07:38:10.158Z,98783.30
2019-05-26T07:40:41.711Z,98781.20
2019-05-26T07:43:13.180Z,98789.84
2019-05-26T07:45:44.634Z,98796.51
2019-05-26T07:48:16.086Z,98795.84
2019-05-26T07:50:47.423Z,98788.17
2019-05-26T07:53:18.897Z,98790.50
2019-05-26T07:55:50.256Z,98797.80
2019-05-26T07:58:21.986Z,98806.20
2019-05-26T08:00:53.331Z,98798.00
2019-05-26T08:03:25.179Z,98788.97
2019-05-26T08:05:57.614Z,98793.28
2019-05-26T08:08:29.196Z,98789.33
2019-05-26T08:11:02.735Z,98790.22
2019-05-26T08:13:34.243Z,98795.66
2019-05-26T08:16:05.711Z,98799.32
2019-05-26T08:18:37.185Z,98794.74
2019-05-26T08:21:09.548Z,98797.66
2019-05-26T08:23:41.675Z,98791.19
2019-05-26T08:26:13.059Z,98795.88
2019-05-26T08:28:44.677Z,98799.76
2019-05-26T08:31:17.675Z,98785.84
2019-05-26T08:33:49.990Z,98796.37
2019-05-26T08:36:23.275Z,98793.54
2019-05-26T08:38:54.835Z,98807.23
2019-05-26T08:41:27.093Z,98799.25
2019-05-26T08:43:59.021Z,98808.69
2019-05-26T08:46:31.109Z,98802.36
2019-05-26T08:49:02.511Z,98806.74
2019-05-26T08:51:33.918Z,98796.05
2019-05-26T08:54:06.706Z,98804.80
2019-05-26T08:56:38.355Z,98812.86
2019-05-26T08:59:11.650Z,98814.89
2019-05-26T09:01:45.667Z,98813.23
2019-05-26T09:04:18.281Z,98804.02
2019-05-26T09:06:49.716Z,98802.09
2019-05-26T09:09:22.642Z,98803.45
2019-05-26T09:11:56.455Z,98805.31
2019-05-26T09:14:30.286Z,98802.10
2019-05-26T09:17:02.357Z,98805.34
2019-05-26T09:19:35.753Z,98811.05
2019-05-26T09:22:09.653Z,98808.77
2019-05-26T09:24:42.256Z,98815.66
2019-05-26T09:27:16.193Z,98825.95
2019-05-26T09:29:48.307Z,98821.93
2019-05-26T09:32:21.599Z,98823.62
2019-05-26T09:34:54.496Z,98820.45
2019-05-26T09:37:26.350Z,98827.53
2019-05-26T09:39:57.800Z,98828.27
2019-05-26T09:42:29.554Z,98823.12
2019-05-26T09:45:01.313Z,98829.70
2019-05-26T09:47:32.720Z,98832.19
2019-05-26T09:50:05.994Z,98817.53
2019-05-26T09:52:37.938Z,98818.03
2019-05-26T09:55:10.720Z,98821.73
2019-05-26T09:57:46.349Z,98824.70
2019-05-26T10:00:19.172Z,98836.28
2019-05-26T10:02:52.320Z,98825.25
2019-05-26T10:05:24.279Z,98827.86
2019-05-26T10:07:56.651Z,98822.86
2019-05-26T10:10:29.131Z,98813.22
2019-05-26T10:13:01.094Z,98818.68
2019-05-26T10:15:33.675Z,98814.59
2019-05-26T10:18:06.568Z,98818.14
2019-05-26T10:20:38.822Z,98823.15
2019-05-26T10:23:10.581Z,98822.80
2019-05-26T10:25:42.779Z,98829.52
2019-05-26T10:28:15.709Z,98832.16
2019-05-26T10:30:49.338Z,98832.42
2019-05-26T10:33:20.834Z,98829.44
2019-05-26T10:35:52.860Z,98835.31
2019-05-26T10:38:25.336Z,98838.27
2019-05-26T10:40:58.521Z,98835.81
2019-05-26T10:43:45.951Z,98840.19
2019-05-26T10:46:06.640Z,98842.65
2019-05-26T10:48:38.398Z,98843.31
2019-05-26T10:51:10.261Z,98847.35
2019-05-26T10:53:42.427Z,98840.30
2019-05-26T10:56:17.060Z,98853.88
2019-05-26T10:58:49.421Z,98839.91
2019-05-26T11:01:23.912Z,98842.17
2019-05-26T11:03:56.934Z,98839.95
2019-05-26T11:06:28.493Z,98837.17
2019-05-26T11:09:00.243Z,98829.86
2019-05-26T11:11:32.539Z,98832.66
2019-05-26T11:14:05.193Z,98821.38
2019-05-26T11:16:36.762Z,98833.06
2019-05-26T11:19:09.422Z,98842.94
2019-05-26T11:21:42.513Z,98843.19
2019-05-26T11:24:18.883Z,98837.69
2019-05-26T11:26:51.110Z,98848.39
2019-05-26T11:29:22.907Z,98838.31
2019-05-26T11:31:56.100Z,98836.67
2019-05-26T11:34:27.973Z,98865.22
2019-05-26T11:36:59.925Z,98853.54
2019-05-26T11:39:32.302Z,98852.97
2019-05-26T11:42:13.226Z,98856.75
2019-05-26T11:44:39.855Z,98856.72
2019-05-26T11:47:11.352Z,98864.97
2019-05-26T11:49:43.323Z,98864.97
2019-05-26T11:52:20.352Z,98863.02
2019-05-26T11:54:54.259Z,98859.80
2019-05-26T11:57:28.937Z,98858.45
2019-05-26T12:00:00.987Z,98867.30
2019-05-26T12:02:32.928Z,98868.03
2019-05-26T12:05:08.169Z,98872.64
2019-05-26T12:07:39.723Z,98872.64
2019-05-26T12:10:14.689Z,98868.59
2019-05-26T12:12:50.386Z,98870.19
2019-05-26T12:15:22.220Z,98867.34
2019-05-26T12:17:53.647Z,98859.55
2019-05-26T12:20:28.111Z,98855.44
2019-05-26T12:23:03.144Z,98850.83
2019-05-26T12:25:34.590Z,98855.47
2019-05-26T12:28:06.350Z,98851.11
2019-05-26T12:30:37.715Z,98857.09
2019-05-26T12:33:11.079Z,98848.09
2019-05-26T12:35:44.365Z,98850.56
2019-05-26T12:38:17.593Z,98850.56
2019-05-26T12:40:57.167Z,98842.91
2019-05-26T12:43:29.247Z,98845.66
2019-05-26T12:46:01.779Z,98848.55
2019-05-26T12:48:33.192Z,98840.53
2019-05-26T12:51:04.750Z,98843.92
2019-05-26T12:53:36.879Z,98850.23
2019-05-26T12:56:08.343Z,98861.72
2019-05-26T12:58:40.198Z,98881.31
2019-05-26T13:01:13.239Z,98909.24
2019-05-26T13:03:45.460Z,98909.24
2019-05-26T13:06:17.763Z,98897.52
2019-05-26T13:08:49.812Z,98898.47
2019-05-26T13:11:22.920Z,98892.89
2019-05-26T13:13:55.538Z,98887.16
2019-05-26T13:16:28.255Z,98893.59
2019-05-26T13:18:59.597Z,98898.09
2019-05-26T13:21:31.620Z,98889.55
2019-05-26T13:24:04.644Z,98889.19
2019-05-26T13:26:36.205Z,98878.88
2019-05-26T13:29:07.707Z,98882.39
2019-05-26T13:31:40.340Z,98890.84
2019-05-26T13:34:12.602Z,98890.52
2019-05-26T13:36:44.173Z,98889.69
2019-05-26T13:39:15.796Z,98894.03
2019-05-26T13:41:47.193Z,98890.30
2019-05-26T13:44:18.551Z,98898.08
2019-05-26T13:46:53.819Z,98901.44
2019-05-26T13:49:25.155Z,98914.91
2019-05-26T13:51:59.252Z,98922.57
2019-05-26T13:54:31.190Z,98927.22
2019-05-26T13:57:02.614Z,98930.98
2019-05-26T13:59:34.489Z,98948.24
2019-05-26T14:02:06.044Z,98978.63
2019-05-26T14:04:40.082Z,99002.69
2019-05-26T14:07:13.325Z,98991.92
2019-05-26T14:09:47.133Z,98989.73
2019-05-26T14:12:20.349Z,98978.54
2019-05-26T14:14:52.268Z,98967.88
2019-05-26T14:17:24.333Z,98962.70
2019-05-26T14:19:57.164Z,98966.33
2019-05-26T14:22:28.955Z,98969.73
2019-05-26T14:25:00.458Z,98979.78
2019-05-26T14:27:34.057Z,98977.14
2019-05-26T14:30:07.354Z,98985.31
2019-05-26T14:32:38.781Z,98983.17
2019-05-26T14:35:11.301Z,98992.03
2019-05-26T14:37:43.834Z,99002.78
2019-05-26T14:40:15.359Z,99004.97
2019-05-26T14:42:49.946Z,99006.11
2019-05-26T14:45:21.802Z,99012.63
2019-05-26T14:47:56.307Z,99013.22
2019-05-26T14:50:27.840Z,99001.73
2019-05-26T14:52:59.611Z,99003.98
2019-05-26T14:55:31.855Z,99005.27
2019-05-26T14:58:15.279Z,99009.17
2019-05-26T15:00:37.248Z,99011.02
2019-05-26T15:03:08.628Z,99007.16
2019-05-26T15:05:42.442Z,99015.80
2019-05-26T15:08:14.038Z,99014.48
2019-05-26T15:10:45.564Z,99008.39
2019-05-26T15:13:20.241Z,99007.59
2019-05-26T15:15:51.888Z,99013.53
2019-05-26T15:18:23.218Z,99012.78
2019-05-26T15:20:56.133Z,99021.99
2019-05-26T15:23:32.422Z,99017.79
2019-05-26T15:26:06.608Z,99018.56
2019-05-26T15:28:37.883Z,99018.06
2019-05-26T15:31:11.383Z,99017.20
2019-05-26T15:33:43.002Z,99029.62
2019-05-26T15:36:16.167Z,99040.86
2019-05-26T15:38:50.249Z,99038.95
2019-05-26T15:41:21.823Z,99035.39
2019-05-26T15:43:55.594Z,99034.63
2019-05-26T15:46:27.182Z,99045.16
2019-05-26T15:48:58.632Z,99053.47
2019-05-26T15:51:30.175Z,99060.50
2019-05-26T15:54:02.927Z,99057.23
2019-05-26T15:56:34.451Z,99059.89
2019-05-26T15:59:05.870Z,99057.34
2019-05-26T16:01:39.581Z,99057.31
2019-05-26T16:04:12.322Z,99060.45
2019-05-26T16:06:45.165Z,99060.16
2019-05-26T16:09:17.247Z,99067.56
2019-05-26T16:11:48.792Z,99064.64
2019-05-26T16:14:22.375Z,99076.46
2019-05-26T16:16:53.841Z,99075.30
2019-05-26T16:19:28.185Z,99086.05
2019-05-26T16:22:01.357Z,99094.09
2019-05-26T16:31:29.261Z,99097.89
2019-05-26T16:34:04.624Z,99106.87
2019-05-26T16:36:38.645Z,99099.02
2019-05-26T16:39:36.148Z,99099.97
2019-05-26T16:42:08.385Z,99102.09
2019-05-26T16:44:38.072Z,99103.22
2019-05-26T16:47:10.830Z,99109.50
2019-05-26T16:49:47.669Z,99106.87
2019-05-26T16:52:25.123Z,99105.38
2019-05-26T16:54:57.051Z,99100.90
2019-05-26T16:57:28.817Z,99103.78
2019-05-26T17:00:01.578Z,99106.69
2019-05-26T17:02:33.565Z,99103.98
2019-05-26T17:05:07.500Z,99103.92
2019-05-26T17:07:42.197Z,99103.61
2019-05-26T17:10:14.263Z,99106.44
2019-05-26T17:12:45.916Z,99109.77
2019-05-26T17:15:19.328Z,99109.04
2019-05-26T17:17:51.994Z,99114.28
2019-05-26T17:20:26.040Z,99117.89
2019-05-26T17:23:01.113Z,99121.88
2019-05-26T17:25:50.614Z,99129.02
2019-05-26T17:28:22.992Z,99135.41
2019-05-26T17:30:54.849Z,99136.38
2019-05-26T17:33:28.571Z,99143.49
2019-05-26T17:36:00.004Z,99133.95
2019-05-26T17:38:34.975Z,99136.52
2019-05-26T17:41:08.123Z,99149.88
2019-05-26T17:43:39.983Z,99155.27
2019-05-26T17:46:15.036Z,99160.03
2019-05-26T17:48:45.962Z,99161.39
2019-05-26T17:51:19.739Z,99163.66
2019-05-26T17:53:52.646Z,99163.92
2019-05-26T17:56:24.094Z,99158.84
2019-05-26T17:58:55.768Z,99175.78
2019-05-26T18:01:27.504Z,99176.56
2019-05-26T18:04:03.967Z,99174.73
2019-05-26T18:06:35.527Z,99178.66
2019-05-26T18:09:11.419Z,99173.39
2019-05-26T18:11:45.909Z,99183.38
2019-05-26T18:14:20.227Z,99188.83
2019-05-26T18:16:52.184Z,99186.09
2019-05-26T18:19:29.808Z,99198.80
2019-05-26T18:22:04.727Z,99194.85
2019-05-26T18:24:36.999Z,99199.00
2019-05-26T18:27:08.543Z,99203.19
2019-05-26T18:29:41.749Z,99201.39
2019-05-26T18:32:17.608Z,99204.30
2019-05-26T18:34:49.412Z,99207.36
2019-05-26T18:37:21.302Z,99212.41
2019-05-26T18:39:54.808Z,99218.45
2019-05-26T18:42:26.358Z,99216.06
2019-05-26T18:44:58.240Z,99216.81
2019-05-26T18:47:31.001Z,99224.05
2019-05-26T18:50:06.316Z,99222.05
2019-05-26T18:52:38.923Z,99220.98
2019-05-26T18:55:10.745Z,99219.60
2019-05-26T18:57:42.409Z,99218.58
2019-05-26T19:00:14.759Z,99216.05
2019-05-26T19:02:46.505Z,99221.13
2019-05-26T19:05:32.514Z,99220.47
2019-05-26T19:07:51.856Z,99223.94
2019-05-26T19:10:23.420Z,99228.99
2019-05-26T19:12:54.955Z,99228.76
2019-05-26T19:15:26.592Z,99227.97
2019-05-26T19:17:58.140Z,99232.88
2019-05-26T19:20:29.769Z,99235.81
2019-05-26T19:23:01.768Z,99237.98
2019-05-26T19:25:33.535Z,99240.47
2019-05-26T19:28:05.600Z,99242.55
2019-05-26T19:30:37.109Z,99243.56
2019-05-26T19:33:10.362Z,99249.25
2019-05-26T19:35:42.030Z,99255.24
2019-05-26T19:38:13.465Z,99254.59
2019-05-26T19:40:46.418Z,99254.77
2019-05-26T19:43:18.340Z,99255.38
2019-05-26T19:45:51.439Z,99255.14
2019-05-26T19:48:35.725Z,99256.22
2019-05-26T19:50:58.336Z,99261.53
2019-05-26T19:53:29.873Z,99263.81
2019-05-26T19:56:01.569Z,99262.05
2019-05-26T19:58:34.642Z,99267.77
2019-05-26T20:01:06.180Z,99273.96
2019-05-26T20:03:37.750Z,99273.62
2019-05-26T20:06:11.535Z,99273.35
2019-05-26T20:08:44.667Z,99280.51
2019-05-26T20:11:17.011Z,99283.13
2019-05-26T20:13:48.801Z,99290.67
2019-05-26T20:16:22.049Z,99288.95
2019-05-26T20:18:53.630Z,99291.56
2019-05-26T20:21:26.578Z,99295.70
2019-05-26T20:23:58.329Z,99299.52
2019-05-26T20:26:32.277Z,99305.77
2019-05-26T20:29:04.137Z,99313.73
2019-05-26T20:31:36.623Z,99310.09
2019-05-26T20:34:08.580Z,99322.62
2019-05-26T20:36:42.287Z,99318.89
2019-05-26T20:39:15.724Z,99320.01
2019-05-26T20:41:47.537Z,99326.34
2019-05-26T20:44:19.302Z,99320.55
2019-05-26T20:46:51.259Z,99320.78
2019-05-26T20:49:23.085Z,99319.06
2019-05-26T20:51:54.882Z,99321.41
2019-05-26T20:54:26.637Z,99323.55
2019-05-26T20:56:58.828Z,99328.53
2019-05-26T20:59:33.424Z,99327.41
2019-05-26T21:02:05.900Z,99319.54
2019-05-26T21:04:38.682Z,99320.81
2019-05-26T21:07:10.767Z,99318.85
2019-05-26T21:09:44.104Z,99320.80
2019-05-26T21:12:16.204Z,99323.27
2019-05-26T21:14:48.069Z,99330.22
2019-05-26T21:17:21.458Z,99320.63
2019-05-26T21:19:54.944Z,99322.47
2019-05-26T21:22:27.044Z,99334.02
2019-05-26T21:24:58.991Z,99331.15
2019-05-26T21:27:30.752Z,99334.54
2019-05-26T21:30:06.468Z,99336.50
2019-05-26T21:32:39.385Z,99325.23
2019-05-26T21:35:12.407Z,99329.70
2019-05-26T21:37:46.907Z,99334.47
2019-05-26T21:40:18.854Z,99328.17
2019-05-26T21:42:50.610Z,99337.95
2019-05-26T21:45:22.269Z,99337.58
2019-05-26T21:47:54.023Z,99345.45
2019-05-26T21:50:28.708Z,99340.80
2019-05-26T21:53:00.307Z,99337.95
2019-05-26T21:55:32.367Z,99343.88
2019-05-26T21:58:04.864Z,99346.29
2019-05-26T22:00:44.754Z,99346.32
2019-05-26T22:03:17.281Z,99351.87
2019-05-26T22:05:49.268Z,99354.34
2019-05-26T22:08:21.195Z,99352.16
2019-05-26T22:10:53.573Z,99353.67
2019-05-26T22:13:25.433Z,99352.87
2019-05-26T22:15:57.900Z,99349.34
2019-05-26T22:18:29.862Z,99355.60
2019-05-26T22:21:02.439Z,99355.14
2019-05-26T22:23:34.810Z,99363.98
2019-05-26T22:26:07.615Z,99359.51
2019-05-26T22:28:41.300Z,99365.28
2019-05-26T22:31:13.068Z,99365.14
2019-05-26T22:33:45.426Z,99365.89
2019-05-26T22:36:17.909Z,99361.00
2019-05-26T22:38:49.561Z,99363.84
2019-05-26T22:41:21.110Z,99368.47
2019-05-26T22:43:52.866Z,99363.47
2019-05-26T22:46:24.726Z,99359.56
2019-05-26T22:48:57.221Z,99365.77
2019-05-26T22:51:29.984Z,99364.12
2019-05-26T22:54:03.486Z,99369.63
2019-05-26T22:56:35.342Z,99365.03
2019-05-26T22:59:07.200Z,99373.04
2019-05-26T23:01:39.267Z,99370.89
2019-05-26T23:04:12.050Z,99372.52
2019-05-26T23:06:44.837Z,99368.55
2019-05-26T23:09:19.147Z,99375.99
2019-05-26T23:11:52.646Z,99375.30
2019-05-26T23:14:24.410Z,99382.48
2019-05-26T23:16:57.186Z,99371.86
2019-05-26T23:19:29.766Z,99369.87
2019-05-26T23:22:01.729Z,99375.45
2019-05-26T23:24:34.404Z,99373.44
2019-05-26T23:27:06.674Z,99365.39
2019-05-26T23:29:39.059Z,99373.29
2019-05-26T23:32:10.915Z,99374.20
2019-05-26T23:34:42.972Z,99369.03
2019-05-26T23:37:15.144Z,99368.77
2019-05-26T23:39:48.636Z,99378.34
2019-05-26T23:42:22.137Z,99375.52
2019-05-26T23:44:54.002Z,99378.01
2019-05-26T23:47:26.678Z,99383.08
2019-05-26T23:49:58.496Z,99386.10
2019-05-26T23:52:32.442Z,99388.80
2019-05-26T23:55:05.532Z,99390.05
2019-05-26T23:57:37.598Z,99387.13
